sensor_id;sensor_type;location;lat;lon;timestamp;pressure;altitude;pressure_sealevel;temperature;humidity
28588;BME280;15787;49.662;10.162;2023-03-13T00:01:50;98578.09;;;9.00;88.92
28588;BME280;15787;49.662;10.162;2023-03-13T00:04:23;98573.31;;;9.01;88.76
28588;BME280;15787;49.662;10.162;2023-03-13T00:06:57;98576.19;;;8.61;89.55
28588;BME280;15787;49.662;10.162;2023-03-13T00:09:30;98570.63;;;8.61;90.28
28588;BME280;15787;49.662;10.162;2023-03-13T00:12:04;98574.53;;;8.44;90.62
28588;BME280;15787;49.662;10.162;2023-03-13T00:14:37;98563.69;;;8.50;91.11
28588;BME280;15787;49.662;10.162;2023-03-13T00:17:12;98565.97;;;8.35;91.22
28588;BME280;15787;49.662;10.162;2023-03-13T00:19:44;98564.38;;;8.34;91.85
28588;BME280;15787;49.662;10.162;2023-03-13T00:22:17;98553.63;;;8.56;91.32
28588;BME280;15787;49.662;10.162;2023-03-13T00:24:50;98557.75;;;8.48;91.11
28588;BME280;15787;49.662;10.162;2023-03-13T00:27:23;98558.97;;;8.47;91.28
28588;BME280;15787;49.662;10.162;2023-03-13T00:29:56;98559.09;;;8.59;91.52
28588;BME280;15787;49.662;10.162;2023-03-13T00:32:30;98550.63;;;8.47;90.47
28588;BME280;15787;49.662;10.162;2023-03-13T00:35:03;98544.28;;;8.46;91.01
28588;BME280;15787;49.662;10.162;2023-03-13T00:37:36;98540.38;;;8.44;90.53
28588;BME280;15787;49.662;10.162;2023-03-13T00:40:10;98543.28;;;8.56;90.54
28588;BME280;15787;49.662;10.162;2023-03-13T00:42:43;98543.28;;;8.56;89.76
28588;BME280;15787;49.662;10.162;2023-03-13T00:45:16;98538.94;;;8.55;90.32
28588;BME280;15787;49.662;10.162;2023-03-13T00:47:52;98542.84;;;8.58;89.83
28588;BME280;15787;49.662;10.162;2023-03-13T00:50:24;98536.34;;;8.45;90.27
28588;BME280;15787;49.662;10.162;2023-03-13T00:52:57;98530.25;;;8.34;90.67
28588;BME280;15787;49.662;10.162;2023-03-13T00:55:31;98531.09;;;8.31;90.91
28588;BME280;15787;49.662;10.162;2023-03-13T00:58:04;98522.81;;;8.27;91.00
28588;BME280;15787;49.662;10.162;2023-03-13T01:00:37;98519.72;;;8.21;91.30
28588;BME280;15787;49.662;10.162;2023-03-13T01:03:11;98523.78;;;8.17;91.78
28588;BME280;15787;49.662;10.162;2023-03-13T01:05:45;98511.97;;;8.13;91.92
28588;BME280;15787;49.662;10.162;2023-03-13T01:08:27;98506.41;;;8.13;91.60
28588;BME280;15787;49.662;10.162;2023-03-13T01:11:02;98500.91;;;8.09;91.71
28588;BME280;15787;49.662;10.162;2023-03-13T01:13:36;98507.19;;;8.13;91.83
28588;BME280;15787;49.662;10.162;2023-03-13T01:16:12;98504.97;;;8.24;91.01
28588;BME280;15787;49.662;10.162;2023-03-13T01:18:48;98500.63;;;8.23;91.66
28588;BME280;15787;49.662;10.162;2023-03-13T01:21:23;98495.72;;;8.31;91.04
28588;BME280;15787;49.662;10.162;2023-03-13T01:23:56;98482.97;;;8.34;90.46
28588;BME280;15787;49.662;10.162;2023-03-13T01:26:29;98482.28;;;8.46;90.02
28588;BME280;15787;49.662;10.162;2023-03-13T01:29:03;98482.06;;;8.56;89.79
28588;BME280;15787;49.662;10.162;2023-03-13T01:31:36;98474.75;;;8.46;90.01
28588;BME280;15787;49.662;10.162;2023-03-13T01:34:12;98473.59;;;8.44;89.71
28588;BME280;15787;49.662;10.162;2023-03-13T01:36:45;98470.56;;;8.54;89.57
28588;BME280;15787;49.662;10.162;2023-03-13T01:39:21;98470.94;;;8.56;89.17
28588;BME280;15787;49.662;10.162;2023-03-13T01:41:54;98462.50;;;8.60;89.33
28588;BME280;15787;49.662;10.162;2023-03-13T01:44:26;98468.34;;;8.65;88.65
28588;BME280;15787;49.662;10.162;2023-03-13T01:47:00;98461.56;;;8.66;88.81
28588;BME280;15787;49.662;10.162;2023-03-13T01:49:51;98456.41;;;8.65;88.50
28588;BME280;15787;49.662;10.162;2023-03-13T01:52:36;98463.38;;;8.73;88.54
28588;BME280;15787;49.662;10.162;2023-03-13T01:55:18;98454.34;;;8.69;88.54
28588;BME280;15787;49.662;10.162;2023-03-13T01:57:53;98450.00;;;8.68;88.69
28588;BME280;15787;49.662;10.162;2023-03-13T02:00:30;98448.34;;;8.70;88.71
28588;BME280;15787;49.662;10.162;2023-03-13T02:03:09;98444.34;;;8.71;88.46
28588;BME280;15787;49.662;10.162;2023-03-13T02:05:45;98429.38;;;8.65;88.70
28588;BME280;15787;49.662;10.162;2023-03-13T02:08:22;98426.19;;;8.67;88.94
28588;BME280;15787;49.662;10.162;2023-03-13T02:11:03;98426.59;;;8.65;89.27
28588;BME280;15787;49.662;10.162;2023-03-13T02:13:39;98424.53;;;8.69;89.02
28588;BME280;15787;49.662;10.162;2023-03-13T02:16:12;98414.31;;;8.63;89.34
28588;BME280;15787;49.662;10.162;2023-03-13T02:18:46;98415.19;;;8.60;89.96
28588;BME280;15787;49.662;10.162;2023-03-13T02:21:31;98401.72;;;8.58;90.19
28588;BME280;15787;49.662;10.162;2023-03-13T02:24:14;98391.78;;;8.57;90.76
28588;BME280;15787;49.662;10.162;2023-03-13T02:26:51;98385.44;;;8.57;90.78
28588;BME280;15787;49.662;10.162;2023-03-13T02:29:24;98392.78;;;8.67;90.44
28588;BME280;15787;49.662;10.162;2023-03-13T02:31:57;98379.28;;;8.65;90.05
28588;BME280;15787;49.662;10.162;2023-03-13T02:34:32;98374.94;;;8.64;90.13
28588;BME280;15787;49.662;10.162;2023-03-13T02:37:07;98366.41;;;8.71;89.96
28588;BME280;15787;49.662;10.162;2023-03-13T02:39:47;98365.56;;;8.74;89.93
28588;BME280;15787;49.662;10.162;2023-03-13T02:42:24;98358.56;;;8.82;89.44
28588;BME280;15787;49.662;10.162;2023-03-13T02:44:56;98350.75;;;8.94;88.99
28588;BME280;15787;49.662;10.162;2023-03-13T02:47:30;98347.97;;;8.94;88.88
28588;BME280;15787;49.662;10.162;2023-03-13T02:50:04;98342.00;;;9.08;87.96
28588;BME280;15787;49.662;10.162;2023-03-13T02:52:40;98345.38;;;9.15;87.75
28588;BME280;15787;49.662;10.162;2023-03-13T02:55:19;98332.00;;;9.10;87.31
28588;BME280;15787;49.662;10.162;2023-03-13T02:57:55;98332.25;;;9.16;87.57
28588;BME280;15787;49.662;10.162;2023-03-13T03:00:29;98320.25;;;9.03;87.74
28588;BME280;15787;49.662;10.162;2023-03-13T03:03:01;98317.25;;;8.97;88.27
28588;BME280;15787;49.662;10.162;2023-03-13T03:05:34;98319.44;;;8.89;89.19
28588;BME280;15787;49.662;10.162;2023-03-13T03:08:07;98306.91;;;8.81;89.18
28588;BME280;15787;49.662;10.162;2023-03-13T03:10:41;98307.94;;;8.87;89.24
28588;BME280;15787;49.662;10.162;2023-03-13T03:13:15;98315.41;;;8.90;89.40
28588;BME280;15787;49.662;10.162;2023-03-13T03:15:48;98320.13;;;8.94;89.61
28588;BME280;15787;49.662;10.162;2023-03-13T03:18:21;98319.13;;;9.00;89.10
28588;BME280;15787;49.662;10.162;2023-03-13T03:20:54;98316.28;;;9.04;89.05
28588;BME280;15787;49.662;10.162;2023-03-13T03:23:27;98313.16;;;9.02;89.55
28588;BME280;15787;49.662;10.162;2023-03-13T03:26:00;98310.69;;;9.04;89.50
28588;BME280;15787;49.662;10.162;2023-03-13T03:28:36;98301.75;;;8.96;89.67
28588;BME280;15787;49.662;10.162;2023-03-13T03:31:14;98304.53;;;8.96;89.76
28588;BME280;15787;49.662;10.162;2023-03-13T03:33:48;98304.63;;;8.93;90.05
28588;BME280;15787;49.662;10.162;2023-03-13T03:36:22;98302.19;;;8.95;90.22
28588;BME280;15787;49.662;10.162;2023-03-13T03:38:56;98315.75;;;8.93;90.82
28588;BME280;15787;49.662;10.162;2023-03-13T03:41:30;98310.97;;;8.93;91.21
28588;BME280;15787;49.662;10.162;2023-03-13T03:44:05;98293.06;;;8.94;91.80
28588;BME280;15787;49.662;10.162;2023-03-13T03:46:51;98298.97;;;8.96;92.56
28588;BME280;15787;49.662;10.162;2023-03-13T03:49:25;98286.84;;;8.74;94.55
28588;BME280;15787;49.662;10.162;2023-03-13T03:51:58;98288.22;;;8.66;95.76
28588;BME280;15787;49.662;10.162;2023-03-13T03:54:37;98285.72;;;8.71;96.28
28588;BME280;15787;49.662;10.162;2023-03-13T03:57:10;98285.97;;;8.77;97.03
28588;BME280;15787;49.662;10.162;2023-03-13T03:59:48;98277.44;;;8.84;97.14
28588;BME280;15787;49.662;10.162;2023-03-13T04:02:20;98269.94;;;8.81;98.16
28588;BME280;15787;49.662;10.162;2023-03-13T04:04:54;98265.25;;;8.78;98.75
28588;BME280;15787;49.662;10.162;2023-03-13T04:07:33;98259.66;;;8.94;99.29
28588;BME280;15787;49.662;10.162;2023-03-13T04:10:07;98262.41;;;8.65;100.00
28588;BME280;15787;49.662;10.162;2023-03-13T04:12:47;98256.63;;;8.72;100.00
28588;BME280;15787;49.662;10.162;2023-03-13T04:15:21;98256.09;;;8.77;100.00
28588;BME280;15787;49.662;10.162;2023-03-13T04:17:54;98249.78;;;8.77;100.00
28588;BME280;15787;49.662;10.162;2023-03-13T04:20:27;98247.34;;;8.79;100.00
28588;BME280;15787;49.662;10.162;2023-03-13T04:23:00;98247.41;;;8.75;100.00
28588;BME280;15787;49.662;10.162;2023-03-13T04:25:34;98243.78;;;8.78;100.00
28588;BME280;15787;49.662;10.162;2023-03-13T04:28:08;98246.56;;;8.78;100.00
28588;BME280;15787;49.662;10.162;2023-03-13T04:30:48;98241.66;;;8.82;100.00
28588;BME280;15787;49.662;10.162;2023-03-13T04:33:34;98231.09;;;8.90;100.00
28588;BME280;15787;49.662;10.162;2023-03-13T04:36:43;98224.47;;;9.00;100.00
28588;BME280;15787;49.662;10.162;2023-03-13T04:39:48;98227.41;;;9.09;100.00
28588;BME280;15787;49.662;10.162;2023-03-13T04:42:41;98222.91;;;9.28;100.00
28588;BME280;15787;49.662;10.162;2023-03-13T04:45:35;98212.88;;;9.30;100.00
28588;BME280;15787;49.662;10.162;2023-03-13T04:48:31;98220.91;;;9.41;100.00
28588;BME280;15787;49.662;10.162;2023-03-13T04:51:17;98211.00;;;9.52;100.00
28588;BME280;15787;49.662;10.162;2023-03-13T04:54:04;98210.13;;;9.68;98.08
28588;BME280;15787;49.662;10.162;2023-03-13T04:56:49;98206.09;;;9.82;97.17
28588;BME280;15787;49.662;10.162;2023-03-13T04:59:45;98206.78;;;9.73;97.16
28588;BME280;15787;49.662;10.162;2023-03-13T05:02:21;98199.88;;;9.90;97.50
28588;BME280;15787;49.662;10.162;2023-03-13T05:05:14;98197.41;;;9.80;97.37
28588;BME280;15787;49.662;10.162;2023-03-13T05:08:15;98192.84;;;9.73;98.41
28588;BME280;15787;49.662;10.162;2023-03-13T05:11:09;98198.44;;;9.73;99.40
28588;BME280;15787;49.662;10.162;2023-03-13T05:14:17;98188.72;;;9.78;100.00
28588;BME280;15787;49.662;10.162;2023-03-13T05:17:19;98185.25;;;9.74;100.00
28588;BME280;15787;49.662;10.162;2023-03-13T05:20:10;98191.75;;;9.71;100.00
28588;BME280;15787;49.662;10.162;2023-03-13T05:22:58;98187.06;;;9.68;100.00
28588;BME280;15787;49.662;10.162;2023-03-13T05:25:49;98180.03;;;9.63;100.00
28588;BME280;15787;49.662;10.162;2023-03-13T05:28:37;98177.56;;;9.65;100.00
28588;BME280;15787;49.662;10.162;2023-03-13T05:31:19;98180.81;;;9.76;100.00
28588;BME280;15787;49.662;10.162;2023-03-13T05:33:52;98178.69;;;9.68;100.00
28588;BME280;15787;49.662;10.162;2023-03-13T05:36:44;98184.50;;;9.73;100.00
28588;BME280;15787;49.662;10.162;2023-03-13T05:39:36;98186.50;;;9.85;100.00
28588;BME280;15787;49.662;10.162;2023-03-13T05:42:27;98184.16;;;9.96;100.00
28588;BME280;15787;49.662;10.162;2023-03-13T05:45:23;98183.03;;;10.06;100.00
28588;BME280;15787;49.662;10.162;2023-03-13T05:48:22;98182.34;;;10.02;100.00
28588;BME280;15787;49.662;10.162;2023-03-13T05:51:07;98176.41;;;10.26;100.00
28588;BME280;15787;49.662;10.162;2023-03-13T05:54:12;98173.88;;;10.19;100.00
28588;BME280;15787;49.662;10.162;2023-03-13T05:57:08;98173.09;;;10.18;100.00
28588;BME280;15787;49.662;10.162;2023-03-13T06:00:08;98166.72;;;10.05;100.00
28588;BME280;15787;49.662;10.162;2023-03-13T06:02:49;98173.88;;;10.06;100.00
28588;BME280;15787;49.662;10.162;2023-03-13T06:05:28;98173.31;;;9.98;100.00
28588;BME280;15787;49.662;10.162;2023-03-13T06:08:03;98163.94;;;10.05;100.00
28588;BME280;15787;49.662;10.162;2023-03-13T06:10:36;98158.69;;;10.07;100.00
28588;BME280;15787;49.662;10.162;2023-03-13T06:13:10;98165.38;;;10.22;100.00
28588;BME280;15787;49.662;10.162;2023-03-13T06:15:55;98165.38;;;10.09;100.00
28588;BME280;15787;49.662;10.162;2023-03-13T06:18:48;98155.69;;;10.14;100.00
28588;BME280;15787;49.662;10.162;2023-03-13T06:21:21;98156.78;;;10.29;100.00
28588;BME280;15787;49.662;10.162;2023-03-13T06:23:55;98148.19;;;10.24;100.00
28588;BME280;15787;49.662;10.162;2023-03-13T06:26:28;98146.31;;;10.21;100.00
28588;BME280;15787;49.662;10.162;2023-03-13T06:29:02;98147.19;;;10.18;100.00
28588;BME280;15787;49.662;10.162;2023-03-13T06:31:35;98143.06;;;10.22;100.00
28588;BME280;15787;49.662;10.162;2023-03-13T06:34:10;98143.84;;;10.10;100.00
28588;BME280;15787;49.662;10.162;2023-03-13T06:36:43;98138.63;;;10.12;100.00
28588;BME280;15787;49.662;10.162;2023-03-13T06:39:16;98137.94;;;10.21;100.00
28588;BME280;15787;49.662;10.162;2023-03-13T06:41:49;98132.34;;;10.21;100.00
28588;BME280;15787;49.662;10.162;2023-03-13T06:44:23;98132.88;;;10.28;100.00
28588;BME280;15787;49.662;10.162;2023-03-13T06:46:56;98132.53;;;10.39;100.00
28588;BME280;15787;49.662;10.162;2023-03-13T06:49:29;98147.59;;;10.41;100.00
28588;BME280;15787;49.662;10.162;2023-03-13T06:52:02;98160.63;;;10.44;100.00
28588;BME280;15787;49.662;10.162;2023-03-13T06:54:36;98161.28;;;10.48;100.00
28588;BME280;15787;49.662;10.162;2023-03-13T06:57:09;98164.16;;;10.57;100.00
28588;BME280;15787;49.662;10.162;2023-03-13T06:59:44;98165.84;;;10.55;100.00
28588;BME280;15787;49.662;10.162;2023-03-13T07:02:17;98155.97;;;10.63;100.00
28588;BME280;15787;49.662;10.162;2023-03-13T07:04:50;98165.44;;;10.65;100.00
28588;BME280;15787;49.662;10.162;2023-03-13T07:07:23;98151.97;;;10.64;100.00
28588;BME280;15787;49.662;10.162;2023-03-13T07:10:03;98155.84;;;10.66;100.00
28588;BME280;15787;49.662;10.162;2023-03-13T07:12:36;98144.91;;;10.72;100.00
28588;BME280;15787;49.662;10.162;2023-03-13T07:15:11;98139.75;;;10.70;100.00
28588;BME280;15787;49.662;10.162;2023-03-13T07:17:44;98144.38;;;10.64;100.00
28588;BME280;15787;49.662;10.162;2023-03-13T07:20:17;98138.78;;;10.64;100.00
28588;BME280;15787;49.662;10.162;2023-03-13T07:22:50;98139.09;;;10.66;100.00
28588;BME280;15787;49.662;10.162;2023-03-13T07:25:24;98136.19;;;10.70;100.00
28588;BME280;15787;49.662;10.162;2023-03-13T07:27:57;98123.00;;;10.70;100.00
28588;BME280;15787;49.662;10.162;2023-03-13T07:30:33;98125.34;;;10.72;100.00
28588;BME280;15787;49.662;10.162;2023-03-13T07:33:06;98115.50;;;10.80;100.00
28588;BME280;15787;49.662;10.162;2023-03-13T07:35:39;98131.19;;;10.87;100.00
28588;BME280;15787;49.662;10.162;2023-03-13T07:38:12;98120.53;;;10.94;100.00
28588;BME280;15787;49.662;10.162;2023-03-13T07:40:49;98124.63;;;11.02;100.00
28588;BME280;15787;49.662;10.162;2023-03-13T07:43:22;98127.22;;;11.18;100.00
28588;BME280;15787;49.662;10.162;2023-03-13T07:45:58;98126.94;;;11.25;100.00
28588;BME280;15787;49.662;10.162;2023-03-13T07:48:32;98121.28;;;11.47;100.00
28588;BME280;15787;49.662;10.162;2023-03-13T07:51:07;98128.94;;;11.56;100.00
28588;BME280;15787;49.662;10.162;2023-03-13T07:53:40;98125.84;;;11.63;100.00
28588;BME280;15787;49.662;10.162;2023-03-13T07:56:15;98120.25;;;11.63;100.00
28588;BME280;15787;49.662;10.162;2023-03-13T07:58:49;98116.06;;;11.58;100.00
28588;BME280;15787;49.662;10.162;2023-03-13T08:01:25;98123.22;;;11.59;100.00
28588;BME280;15787;49.662;10.162;2023-03-13T08:04:01;98115.13;;;11.61;100.00
28588;BME280;15787;49.662;10.162;2023-03-13T08:06:36;98111.59;;;11.70;100.00
28588;BME280;15787;49.662;10.162;2023-03-13T08:09:10;98115.50;;;11.72;100.00
28588;BME280;15787;49.662;10.162;2023-03-13T08:11:43;98112.44;;;11.79;100.00
28588;BME280;15787;49.662;10.162;2023-03-13T08:14:17;98106.84;;;11.79;100.00
28588;BME280;15787;49.662;10.162;2023-03-13T08:16:51;98119.28;;;11.87;100.00
28588;BME280;15787;49.662;10.162;2023-03-13T08:19:24;98108.41;;;11.89;100.00
28588;BME280;15787;49.662;10.162;2023-03-13T08:21:57;98108.59;;;12.04;100.00
28588;BME280;15787;49.662;10.162;2023-03-13T08:24:30;98108.91;;;12.06;100.00
28588;BME280;15787;49.662;10.162;2023-03-13T08:27:03;98112.19;;;12.14;100.00
28588;BME280;15787;49.662;10.162;2023-03-13T08:29:36;98106.75;;;12.28;100.00
28588;BME280;15787;49.662;10.162;2023-03-13T08:32:11;98106.13;;;12.33;100.00
28588;BME280;15787;49.662;10.162;2023-03-13T08:34:44;98101.47;;;12.48;100.00
28588;BME280;15787;49.662;10.162;2023-03-13T08:37:17;98108.34;;;12.65;100.00
28588;BME280;15787;49.662;10.162;2023-03-13T08:39:50;98099.31;;;12.71;100.00
28588;BME280;15787;49.662;10.162;2023-03-13T08:42:24;98113.31;;;12.71;100.00
28588;BME280;15787;49.662;10.162;2023-03-13T08:44:57;98125.31;;;12.71;100.00
28588;BME280;15787;49.662;10.162;2023-03-13T08:47:32;98120.44;;;12.72;100.00
28588;BME280;15787;49.662;10.162;2023-03-13T08:50:06;98119.97;;;12.82;100.00
28588;BME280;15787;49.662;10.162;2023-03-13T08:52:39;98112.97;;;12.87;100.00
28588;BME280;15787;49.662;10.162;2023-03-13T08:55:12;98110.03;;;12.90;100.00
28588;BME280;15787;49.662;10.162;2023-03-13T08:57:45;98120.00;;;12.91;99.88
28588;BME280;15787;49.662;10.162;2023-03-13T09:00:19;98116.22;;;12.94;99.72
28588;BME280;15787;49.662;10.162;2023-03-13T09:02:56;98115.91;;;12.92;99.67
28588;BME280;15787;49.662;10.162;2023-03-13T09:05:29;98118.72;;;12.92;99.84
28588;BME280;15787;49.662;10.162;2023-03-13T09:08:02;98116.38;;;13.00;99.45
28588;BME280;15787;49.662;10.162;2023-03-13T09:10:35;98135.22;;;12.99;99.18
28588;BME280;15787;49.662;10.162;2023-03-13T09:13:08;98128.69;;;13.11;99.22
28588;BME280;15787;49.662;10.162;2023-03-13T09:15:41;98132.13;;;13.06;98.00
28588;BME280;15787;49.662;10.162;2023-03-13T09:18:16;98118.25;;;13.03;98.21
28588;BME280;15787;49.662;10.162;2023-03-13T09:20:49;98114.06;;;13.07;97.43
28588;BME280;15787;49.662;10.162;2023-03-13T09:23:23;98124.03;;;13.08;98.36
28588;BME280;15787;49.662;10.162;2023-03-13T09:25:56;98126.34;;;13.10;97.45
28588;BME280;15787;49.662;10.162;2023-03-13T09:28:29;98123.56;;;13.10;97.49
28588;BME280;15787;49.662;10.162;2023-03-13T09:31:06;98122.75;;;13.09;97.53
28588;BME280;15787;49.662;10.162;2023-03-13T09:33:42;98136.16;;;13.14;97.67
28588;BME280;15787;49.662;10.162;2023-03-13T09:36:17;98140.84;;;13.08;97.90
28588;BME280;15787;49.662;10.162;2023-03-13T09:38:54;98140.53;;;13.06;97.80
28588;BME280;15787;49.662;10.162;2023-03-13T09:41:33;98146.16;;;13.06;97.30
28588;BME280;15787;49.662;10.162;2023-03-13T09:44:10;98146.56;;;13.05;97.69
28588;BME280;15787;49.662;10.162;2023-03-13T09:46:52;98153.59;;;13.09;96.69
28588;BME280;15787;49.662;10.162;2023-03-13T09:49:32;98143.94;;;13.01;97.91
28588;BME280;15787;49.662;10.162;2023-03-13T09:52:13;98128.53;;;13.06;97.70
28588;BME280;15787;49.662;10.162;2023-03-13T09:54:48;98143.63;;;12.99;98.58
28588;BME280;15787;49.662;10.162;2023-03-13T09:57:27;98145.50;;;12.93;98.82
28588;BME280;15787;49.662;10.162;2023-03-13T10:00:07;98143.34;;;13.06;99.05
28588;BME280;15787;49.662;10.162;2023-03-13T10:02:57;98142.22;;;12.95;98.80
28588;BME280;15787;49.662;10.162;2023-03-13T10:05:33;98151.13;;;12.93;100.00
28588;BME280;15787;49.662;10.162;2023-03-13T10:08:11;98134.47;;;13.08;99.37
28588;BME280;15787;49.662;10.162;2023-03-13T10:10:50;98134.75;;;13.10;98.70
28588;BME280;15787;49.662;10.162;2023-03-13T10:13:30;98120.09;;;13.24;97.90
28588;BME280;15787;49.662;10.162;2023-03-13T10:16:07;98119.91;;;13.27;97.22
28588;BME280;15787;49.662;10.162;2023-03-13T10:18:43;98106.63;;;13.46;95.19
28588;BME280;15787;49.662;10.162;2023-03-13T10:21:20;98091.47;;;13.62;94.76
28588;BME280;15787;49.662;10.162;2023-03-13T10:23:57;98094.25;;;13.62;93.95
28588;BME280;15787;49.662;10.162;2023-03-13T10:26:36;98096.84;;;13.74;93.14
28588;BME280;15787;49.662;10.162;2023-03-13T10:29:21;98082.75;;;13.83;92.84
28588;BME280;15787;49.662;10.162;2023-03-13T10:31:56;98091.94;;;13.93;92.67
28588;BME280;15787;49.662;10.162;2023-03-13T10:34:46;98075.44;;;14.10;91.01
28588;BME280;15787;49.662;10.162;2023-03-13T10:37:24;98082.94;;;14.27;91.35
28588;BME280;15787;49.662;10.162;2023-03-13T10:40:11;98064.44;;;14.21;90.81
28588;BME280;15787;49.662;10.162;2023-03-13T10:42:45;98072.78;;;14.30;89.86
28588;BME280;15787;49.662;10.162;2023-03-13T10:45:20;98066.66;;;14.40;90.12
28588;BME280;15787;49.662;10.162;2023-03-13T10:47:59;98059.03;;;14.55;89.44
28588;BME280;15787;49.662;10.162;2023-03-13T10:50:33;98057.84;;;14.47;89.55
28588;BME280;15787;49.662;10.162;2023-03-13T10:53:20;98055.13;;;14.38;89.49
28588;BME280;15787;49.662;10.162;2023-03-13T10:55:54;98064.13;;;14.42;89.78
28588;BME280;15787;49.662;10.162;2023-03-13T10:58:33;98068.13;;;14.27;89.05
28588;BME280;15787;49.662;10.162;2023-03-13T11:01:18;98062.66;;;14.32;88.48
28588;BME280;15787;49.662;10.162;2023-03-13T11:03:55;98060.47;;;14.36;89.59
28588;BME280;15787;49.662;10.162;2023-03-13T11:06:29;98061.28;;;14.51;89.15
28588;BME280;15787;49.662;10.162;2023-03-13T11:09:10;98054.00;;;14.60;88.30
28588;BME280;15787;49.662;10.162;2023-03-13T11:11:46;98033.31;;;14.72;87.99
28588;BME280;15787;49.662;10.162;2023-03-13T11:14:21;98049.78;;;14.79;86.74
28588;BME280;15787;49.662;10.162;2023-03-13T11:16:56;98028.03;;;15.23;87.21
28588;BME280;15787;49.662;10.162;2023-03-13T11:19:53;98026.88;;;15.99;83.57
28588;BME280;15787;49.662;10.162;2023-03-13T11:22:37;98013.34;;;16.43;81.81
28588;BME280;15787;49.662;10.162;2023-03-13T11:25:20;98020.72;;;16.61;81.52
28588;BME280;15787;49.662;10.162;2023-03-13T11:28:06;98013.53;;;16.60;80.61
28588;BME280;15787;49.662;10.162;2023-03-13T11:30:49;98015.63;;;16.45;80.76
28588;BME280;15787;49.662;10.162;2023-03-13T11:33:35;97996.63;;;16.40;80.89
28588;BME280;15787;49.662;10.162;2023-03-13T11:36:18;98007.88;;;17.12;80.44
28588;BME280;15787;49.662;10.162;2023-03-13T11:38:53;97994.44;;;17.32;77.97
28588;BME280;15787;49.662;10.162;2023-03-13T11:41:38;97984.41;;;16.94;77.65
28588;BME280;15787;49.662;10.162;2023-03-13T11:44:22;97990.16;;;16.54;77.80
28588;BME280;15787;49.662;10.162;2023-03-13T11:47:07;97976.63;;;16.58;80.10
28588;BME280;15787;49.662;10.162;2023-03-13T11:50:13;97971.25;;;16.60;78.51
28588;BME280;15787;49.662;10.162;2023-03-13T11:52:57;97980.56;;;16.66;77.79
28588;BME280;15787;49.662;10.162;2023-03-13T11:55:50;97976.47;;;17.30;77.83
28588;BME280;15787;49.662;10.162;2023-03-13T11:58:55;97974.59;;;17.16;76.72
28588;BME280;15787;49.662;10.162;2023-03-13T12:01:36;97965.53;;;17.43;77.23
28588;BME280;15787;49.662;10.162;2023-03-13T12:04:15;97959.19;;;18.01;76.30
28588;BME280;15787;49.662;10.162;2023-03-13T12:06:52;97954.25;;;17.43;75.34
28588;BME280;15787;49.662;10.162;2023-03-13T12:09:29;97947.41;;;18.08;74.50
28588;BME280;15787;49.662;10.162;2023-03-13T12:12:14;97953.34;;;17.62;74.15
28588;BME280;15787;49.662;10.162;2023-03-13T12:14:52;97951.59;;;17.71;73.87
28588;BME280;15787;49.662;10.162;2023-03-13T12:17:32;97942.47;;;17.92;74.22
28588;BME280;15787;49.662;10.162;2023-03-13T12:20:11;97953.06;;;18.08;73.47
28588;BME280;15787;49.662;10.162;2023-03-13T12:22:50;97933.91;;;18.51;72.91
28588;BME280;15787;49.662;10.162;2023-03-13T12:25:26;97931.84;;;18.46;71.63
28588;BME280;15787;49.662;10.162;2023-03-13T12:28:12;97918.28;;;18.89;70.92
28588;BME280;15787;49.662;10.162;2023-03-13T12:30:55;97908.50;;;19.01;70.78
28588;BME280;15787;49.662;10.162;2023-03-13T12:33:34;97897.44;;;19.14;70.47
28588;BME280;15787;49.662;10.162;2023-03-13T12:36:13;97893.56;;;19.17;69.50
28588;BME280;15787;49.662;10.162;2023-03-13T12:38:54;97893.28;;;19.26;69.09
28588;BME280;15787;49.662;10.162;2023-03-13T12:41:31;97889.25;;;18.61;69.59
28588;BME280;15787;49.662;10.162;2023-03-13T12:44:12;97877.41;;;18.84;68.04
28588;BME280;15787;49.662;10.162;2023-03-13T12:46:57;97868.78;;;19.57;68.61
28588;BME280;15787;49.662;10.162;2023-03-13T12:53:03;97843.50;;;19.75;68.28
28588;BME280;15787;49.662;10.162;2023-03-13T12:55:56;97847.47;;;19.44;68.14
28588;BME280;15787;49.662;10.162;2023-03-13T12:58:40;97837.13;;;19.58;67.08
28588;BME280;15787;49.662;10.162;2023-03-13T13:01:24;97822.06;;;19.85;66.34
28588;BME280;15787;49.662;10.162;2023-03-13T13:04:06;97834.34;;;19.36;66.38
28588;BME280;15787;49.662;10.162;2023-03-13T13:06:51;97825.50;;;19.67;66.55
28588;BME280;15787;49.662;10.162;2023-03-13T13:09:27;97825.56;;;19.45;66.46
28588;BME280;15787;49.662;10.162;2023-03-13T13:12:01;97812.75;;;19.38;66.63
28588;BME280;15787;49.662;10.162;2023-03-13T13:17:44;97807.44;;;19.76;66.18
28588;BME280;15787;49.662;10.162;2023-03-13T13:23:29;97794.44;;;19.97;65.49
28588;BME280;15787;49.662;10.162;2023-03-13T13:26:38;97793.91;;;19.52;65.98
28588;BME280;15787;49.662;10.162;2023-03-13T13:35:26;97755.47;;;19.05;66.20
28588;BME280;15787;49.662;10.162;2023-03-13T13:38:30;97744.88;;;19.22;66.05
28588;BME280;15787;49.662;10.162;2023-03-13T13:41:34;97754.66;;;19.15;66.03
28588;BME280;15787;49.662;10.162;2023-03-13T13:44:20;97754.75;;;18.93;65.55
28588;BME280;15787;49.662;10.162;2023-03-13T13:46:55;97750.63;;;18.94;65.96
28588;BME280;15787;49.662;10.162;2023-03-13T13:49:32;97744.72;;;18.92;66.26
28588;BME280;15787;49.662;10.162;2023-03-13T13:52:38;97746.25;;;18.93;66.26
28588;BME280;15787;49.662;10.162;2023-03-13T13:55:41;97731.88;;;18.85;65.42
28588;BME280;15787;49.662;10.162;2023-03-13T13:58:18;97724.97;;;18.75;65.10
28588;BME280;15787;49.662;10.162;2023-03-13T14:00:54;97718.00;;;18.76;65.93
28588;BME280;15787;49.662;10.162;2023-03-13T14:03:30;97696.13;;;18.93;66.65
28588;BME280;15787;49.662;10.162;2023-03-13T14:06:16;97704.88;;;18.84;67.40